createdAt,value
2018-10-09T09:16:42.000Z,25
2018-10-09T09:17:33.000Z,32
2018-10-09T09:18:33.000Z,31
2018-10-09T09:19:33.000Z,30
2018-10-09T09:20:33.000Z,30
2018-10-09T09:21:32.000Z,31
2018-10-09T09:22:32.000Z,33
2018-10-09T09:23:32.000Z,34
2018-10-09T09:24:32.000Z,34
2018-10-09T09:25:32.000Z,34
2018-10-09T09:26:30.000Z,34
2018-10-09T09:27:29.000Z,36
2018-10-09T09:28:29.000Z,37
2018-10-09T09:29:29.000Z,38
2018-10-09T09:30:29.000Z,36
2018-10-09T09:31:29.000Z,36
2018-10-09T09:32:30.000Z,37
2018-10-09T09:33:29.000Z,36
2018-10-09T09:34:29.000Z,36
2018-10-09T09:35:29.000Z,35
2018-10-09T09:36:30.000Z,36
2018-10-09T09:37:30.000Z,37
2018-10-09T09:38:30.000Z,37
2018-10-09T09:39:30.000Z,37
2018-10-09T09:40:29.000Z,36
2018-10-09T09:41:30.000Z,35
2018-10-09T09:42:30.000Z,34
2018-10-09T09:43:30.000Z,30
2018-10-09T09:44:29.000Z,30
2018-10-09T09:45:30.000Z,29
2018-10-09T09:46:30.000Z,28
2018-10-09T09:47:29.000Z,28
2018-10-09T09:48:29.000Z,27
2018-10-09T09:49:29.000Z,25
2018-10-09T09:50:29.000Z,25
2018-10-09T09:51:30.000Z,24
2018-10-09T09:52:29.000Z,24
2018-10-09T09:53:30.000Z,23
2018-10-09T09:54:31.000Z,23
2018-10-09T09:55:30.000Z,24
2018-10-09T09:56:30.000Z,25
2018-10-09T09:57:30.000Z,25
2018-10-09T09:58:29.000Z,25
2018-10-09T09:59:29.000Z,24
2018-10-09T10:00:30.000Z,24
2018-10-09T10:01:30.000Z,23
2018-10-09T10:02:30.000Z,23
2018-10-09T10:03:29.000Z,23
2018-10-09T10:04:30.000Z,23
2018-10-09T10:05:29.000Z,23
2018-10-09T10:06:29.000Z,22
2018-10-09T10:07:30.000Z,22
2018-10-09T10:08:30.000Z,22
2018-10-09T10:09:30.000Z,22
2018-10-09T10:10:31.000Z,22
2018-10-09T10:11:31.000Z,22
2018-10-09T10:12:30.000Z,21
2018-10-09T10:13:30.000Z,22
2018-10-09T10:14:30.000Z,22
2018-10-09T10:15:31.000Z,22
2018-10-09T10:16:30.000Z,22
2018-10-09T10:17:30.000Z,22
2018-10-09T10:18:30.000Z,22
2018-10-09T10:19:29.000Z,22
2018-10-09T10:20:30.000Z,21
2018-10-09T10:21:30.000Z,21
2018-10-09T10:22:29.000Z,22
2018-10-09T10:23:30.000Z,21
2018-10-09T10:24:31.000Z,21
2018-10-09T10:25:30.000Z,20
2018-10-09T10:26:30.000Z,20
2018-10-09T10:27:31.000Z,20
2018-10-09T10:28:30.000Z,21
2018-10-09T10:29:30.000Z,21
2018-10-09T10:30:30.000Z,21
2018-10-09T10:31:30.000Z,21
2018-10-09T10:32:29.000Z,20
2018-10-09T10:33:30.000Z,20
2018-10-09T10:34:30.000Z,20
2018-10-09T10:35:31.000Z,21
2018-10-09T10:36:31.000Z,21
2018-10-09T10:37:31.000Z,21
2018-10-09T10:38:31.000Z,21
2018-10-09T10:39:32.000Z,21
2018-10-09T10:40:31.000Z,21
2018-10-09T10:41:30.000Z,21
2018-10-09T10:42:29.000Z,21
2018-10-09T10:43:30.000Z,21
2018-10-09T10:44:31.000Z,21
2018-10-09T10:45:31.000Z,21
2018-10-09T10:46:31.000Z,21
2018-10-09T10:47:30.000Z,21
2018-10-09T10:48:30.000Z,21
2018-10-09T10:49:29.000Z,21
2018-10-09T10:50:30.000Z,21
2018-10-09T10:51:31.000Z,22
2018-10-09T10:52:31.000Z,21
2018-10-09T10:53:30.000Z,21
2018-10-09T10:54:30.000Z,21
2018-10-09T10:55:29.000Z,21
2018-10-09T10:56:30.000Z,21
2018-10-09T10:57:30.000Z,21
2018-10-09T10:58:29.000Z,21
2018-10-09T10:59:30.000Z,21
2018-10-09T11:00:29.000Z,21
2018-10-09T11:01:30.000Z,21
2018-10-09T11:02:31.000Z,21
2018-10-09T11:03:30.000Z,21
2018-10-09T11:04:31.000Z,22
2018-10-09T11:05:31.000Z,22
2018-10-09T11:06:30.000Z,22
2018-10-09T11:07:31.000Z,22
2018-10-09T11:08:30.000Z,22
2018-10-09T11:09:31.000Z,21
2018-10-09T11:10:30.000Z,21
2018-10-09T11:11:30.000Z,21
2018-10-09T11:12:29.000Z,21
2018-10-09T11:13:30.000Z,21
2018-10-09T11:14:30.000Z,22
2018-10-09T11:15:31.000Z,22
2018-10-09T11:16:30.000Z,22
2018-10-09T11:17:31.000Z,22
2018-10-09T11:18:30.000Z,22
2018-10-09T11:19:31.000Z,22
2018-10-09T11:20:31.000Z,22
2018-10-09T11:21:30.000Z,22
2018-10-09T11:22:29.000Z,22
2018-10-09T11:23:30.000Z,22
2018-10-09T11:24:31.000Z,22
2018-10-09T11:25:29.000Z,22
2018-10-09T11:26:31.000Z,22
2018-10-09T11:27:30.000Z,22
2018-10-09T11:28:31.000Z,23
2018-10-09T11:29:30.000Z,22
2018-10-09T11:30:31.000Z,22
2018-10-09T11:31:31.000Z,22
2018-10-09T11:32:30.000Z,23
2018-10-09T11:33:29.000Z,23
2018-10-09T11:34:30.000Z,23
2018-10-09T11:35:29.000Z,23
2018-10-09T11:36:29.000Z,23
2018-10-09T11:37:29.000Z,23
2018-10-09T11:38:31.000Z,23
2018-10-09T11:39:31.000Z,22
2018-10-09T11:40:31.000Z,22
2018-10-09T11:41:29.000Z,22
2018-10-09T11:42:29.000Z,22
2018-10-09T11:43:29.000Z,22
2018-10-09T11:44:29.000Z,22
2018-10-09T11:45:30.000Z,22
2018-10-09T11:46:30.000Z,22
2018-10-09T11:47:30.000Z,22
2018-10-09T11:48:31.000Z,22
2018-10-09T11:49:31.000Z,22
2018-10-09T11:50:31.000Z,22
2018-10-09T11:51:30.000Z,22
2018-10-09T11:52:29.000Z,22
2018-10-09T11:53:29.000Z,21
2018-10-09T11:54:30.000Z,21
2018-10-09T11:55:30.000Z,22
2018-10-09T11:56:30.000Z,22
2018-10-09T11:57:29.000Z,21
2018-10-09T11:58:30.000Z,21
2018-10-09T11:59:31.000Z,21
2018-10-09T12:00:30.000Z,21
2018-10-09T12:01:30.000Z,21
2018-10-09T12:02:30.000Z,21
2018-10-09T12:03:31.000Z,21
2018-10-09T12:04:31.000Z,21
2018-10-09T12:05:30.000Z,21
2018-10-09T12:06:29.000Z,22
2018-10-09T12:07:30.000Z,22
2018-10-09T12:08:29.000Z,22
2018-10-09T12:09:30.000Z,22
2018-10-09T12:10:30.000Z,22
2018-10-09T12:11:31.000Z,22
2018-10-09T12:12:31.000Z,22
2018-10-09T12:13:31.000Z,22
2018-10-09T12:14:31.000Z,22
2018-10-09T12:15:31.000Z,22
2018-10-09T12:16:31.000Z,22
2018-10-09T12:17:31.000Z,22
2018-10-09T12:18:31.000Z,22
2018-10-09T12:19:31.000Z,22
2018-10-09T12:20:30.000Z,22
2018-10-09T12:21:29.000Z,22
2018-10-09T12:22:30.000Z,22
2018-10-09T12:23:30.000Z,22
2018-10-09T12:24:30.000Z,21
2018-10-09T12:25:30.000Z,22
2018-10-09T12:26:30.000Z,22
2018-10-09T12:27:30.000Z,22
2018-10-09T12:28:30.000Z,22
2018-10-09T12:29:31.000Z,22
2018-10-09T12:30:31.000Z,22
2018-10-09T12:31:31.000Z,22
2018-10-09T12:32:30.000Z,22
2018-10-09T12:33:31.000Z,21
2018-10-09T12:34:31.000Z,21
2018-10-09T12:35:29.000Z,21
2018-10-09T12:36:31.000Z,21
2018-10-09T12:37:30.000Z,21
2018-10-09T12:38:29.000Z,21
2018-10-09T12:39:31.000Z,21
2018-10-09T12:40:29.000Z,21
2018-10-09T12:41:30.000Z,21
2018-10-09T12:42:30.000Z,21
2018-10-09T12:43:31.000Z,21
2018-10-09T12:44:30.000Z,22
2018-10-09T12:45:30.000Z,22
2018-10-09T12:46:29.000Z,22
2018-10-09T12:47:30.000Z,22
2018-10-09T12:48:31.000Z,21
2018-10-09T12:49:31.000Z,21
2018-10-09T12:50:30.000Z,21
2018-10-09T12:51:31.000Z,22
2018-10-09T12:52:31.000Z,21
2018-10-09T12:53:30.000Z,21
2018-10-09T12:54:31.000Z,21
2018-10-09T12:55:31.000Z,21
2018-10-09T12:56:30.000Z,21
2018-10-09T12:57:31.000Z,21
2018-10-09T12:58:30.000Z,21
2018-10-09T12:59:30.000Z,21
